sensor_id;sensor_type;location;lat;lon;timestamp;pressure;altitude;pressure_sealevel;temperature;humidity
75923;BME280;64602;47.542;19.090;2022-12-29T08:16:49;100973.13;;;1.19;80.11
75923;BME280;64602;47.542;19.090;2022-12-29T08:21:52;100974.62;;;1.67;78.79
75923;BME280;64602;47.542;19.090;2022-12-29T08:26:54;100973.84;;;2.05;77.34
75923;BME280;64602;47.542;19.090;2022-12-29T08:31:56;100971.41;;;1.95;76.99
75923;BME280;64602;47.542;19.090;2022-12-29T08:36:59;100972.31;;;1.64;77.73
75923;BME280;64602;47.542;19.090;2022-12-29T08:42:01;100965.75;;;1.52;78.21
75923;BME280;64602;47.542;19.090;2022-12-29T08:47:03;100960.72;;;1.26;78.81
75923;BME280;64602;47.542;19.090;2022-12-29T08:52:05;100944.63;;;1.11;79.32
75923;BME280;64602;47.542;19.090;2022-12-29T08:57:07;100952.53;;;1.27;79.17
75923;BME280;64602;47.542;19.090;2022-12-29T09:02:11;100956.88;;;1.52;78.85
75923;BME280;64602;47.542;19.090;2022-12-29T09:07:16;100935.06;;;1.40;78.72
75923;BME280;64602;47.542;19.090;2022-12-29T09:12:18;100951.53;;;1.52;78.89
75923;BME280;64602;47.542;19.090;2022-12-29T09:17:20;100945.75;;;1.40;78.94
75923;BME280;64602;47.542;19.090;2022-12-29T09:22:42;100922.59;;;1.32;79.29
75923;BME280;64602;47.542;19.090;2022-12-29T09:27:44;100930.66;;;1.70;78.68
75923;BME280;64602;47.542;19.090;2022-12-29T09:32:47;100923.16;;;2.18;76.96
75923;BME280;64602;47.542;19.090;2022-12-29T09:37:55;100914.50;;;2.16;76.29
75923;BME280;64602;47.542;19.090;2022-12-29T09:48:41;100890.47;;;2.38;75.20
75923;BME280;64602;47.542;19.090;2022-12-29T09:54:00;100897.84;;;2.65;74.37
75923;BME280;64602;47.542;19.090;2022-12-29T09:59:12;100897.84;;;2.65;74.74
75923;BME280;64602;47.542;19.090;2022-12-29T10:04:17;100897.47;;;2.53;74.45
75923;BME280;64602;47.542;19.090;2022-12-29T10:15:11;100886.41;;;2.93;73.16
75923;BME280;64602;47.542;19.090;2022-12-29T10:25:44;100883.69;;;5.17;66.15
75923;BME280;64602;47.542;19.090;2022-12-29T10:30:48;100884.69;;;6.49;63.48
75923;BME280;64602;47.542;19.090;2022-12-29T10:35:51;100874.53;;;6.37;60.72
75923;BME280;64602;47.542;19.090;2022-12-29T10:41:00;100862.91;;;7.20;57.84
75923;BME280;64602;47.542;19.090;2022-12-29T10:46:10;100872.31;;;12.05;48.09
75923;BME280;64602;47.542;19.090;2022-12-29T10:51:22;100882.19;;;14.76;42.09
75923;BME280;64602;47.542;19.090;2022-12-29T11:01:43;100883.28;;;20.12;29.94
75923;BME280;64602;47.542;19.090;2022-12-29T11:06:49;100880.31;;;21.05;28.48
75923;BME280;64602;47.542;19.090;2022-12-29T11:11:51;100859.47;;;21.58;26.80
75923;BME280;64602;47.542;19.090;2022-12-29T11:17:04;100862.53;;;21.79;26.69
75923;BME280;64602;47.542;19.090;2022-12-29T11:22:25;100874.16;;;22.60;25.42
75923;BME280;64602;47.542;19.090;2022-12-29T11:27:28;100870.59;;;23.99;23.62
75923;BME280;64602;47.542;19.090;2022-12-29T11:32:31;100854.22;;;23.51;23.96
75923;BME280;64602;47.542;19.090;2022-12-29T11:37:38;100857.59;;;24.29;23.18
75923;BME280;64602;47.542;19.090;2022-12-29T11:42:47;100830.59;;;24.09;23.24
75923;BME280;64602;47.542;19.090;2022-12-29T11:47:56;100833.25;;;23.97;23.05
75923;BME280;64602;47.542;19.090;2022-12-29T11:53:03;100834.44;;;24.25;22.71
75923;BME280;64602;47.542;19.090;2022-12-29T11:58:14;100811.97;;;21.24;25.49
75923;BME280;64602;47.542;19.090;2022-12-29T12:03:21;100824.88;;;19.82;28.83
75923;BME280;64602;47.542;19.090;2022-12-29T12:08:36;100832.56;;;23.00;24.28
75923;BME280;64602;47.542;19.090;2022-12-29T12:13:59;100830.94;;;23.25;23.72
75923;BME280;64602;47.542;19.090;2022-12-29T12:35:24;100768.69;;;20.11;27.16
75923;BME280;64602;47.542;19.090;2022-12-29T12:40:39;100746.34;;;16.49;32.67
75923;BME280;64602;47.542;19.090;2022-12-29T12:51:36;100736.22;;;12.00;41.87
75923;BME280;64602;47.542;19.090;2022-12-29T13:19:00;100744.69;;;8.09;53.37
75923;BME280;64602;47.542;19.090;2022-12-29T13:24:17;100725.88;;;7.22;55.58
75923;BME280;64602;47.542;19.090;2022-12-29T13:34:59;100753.19;;;6.51;58.98
75923;BME280;64602;47.542;19.090;2022-12-29T13:40:12;100751.47;;;6.11;60.59
75923;BME280;64602;47.542;19.090;2022-12-29T13:45:19;100754.22;;;5.85;61.59
75923;BME280;64602;47.542;19.090;2022-12-29T13:50:25;100750.16;;;5.69;62.32
75923;BME280;64602;47.542;19.090;2022-12-29T13:55:35;100757.41;;;5.55;63.08
75923;BME280;64602;47.542;19.090;2022-12-29T14:11:21;100759.72;;;4.98;65.67
75923;BME280;64602;47.542;19.090;2022-12-29T14:16:30;100753.50;;;4.84;65.57
75923;BME280;64602;47.542;19.090;2022-12-29T14:21:33;100760.31;;;4.67;66.17
75923;BME280;64602;47.542;19.090;2022-12-29T14:26:35;100754.44;;;4.37;66.99
75923;BME280;64602;47.542;19.090;2022-12-29T14:31:37;100749.44;;;4.20;67.77
75923;BME280;64602;47.542;19.090;2022-12-29T14:36:52;100750.78;;;3.96;68.76
75923;BME280;64602;47.542;19.090;2022-12-29T14:42:05;100753.75;;;3.73;69.90
75923;BME280;64602;47.542;19.090;2022-12-29T14:47:08;100756.78;;;3.57;70.45
75923;BME280;64602;47.542;19.090;2022-12-29T14:52:23;100750.25;;;3.38;71.09
75923;BME280;64602;47.542;19.090;2022-12-29T14:57:36;100764.12;;;3.20;71.87
75923;BME280;64602;47.542;19.090;2022-12-29T15:02:42;100777.22;;;3.08;72.67
75923;BME280;64602;47.542;19.090;2022-12-29T15:07:46;100763.84;;;2.87;73.48
75923;BME280;64602;47.542;19.090;2022-12-29T15:12:52;100774.81;;;2.70;74.22
75923;BME280;64602;47.542;19.090;2022-12-29T15:18:13;100793.63;;;2.55;74.78
75923;BME280;64602;47.542;19.090;2022-12-29T15:23:16;100803.37;;;2.42;75.36
75923;BME280;64602;47.542;19.090;2022-12-29T15:28:20;100782.72;;;2.21;75.89
75923;BME280;64602;47.542;19.090;2022-12-29T15:33:26;100784.75;;;2.04;76.44
75923;BME280;64602;47.542;19.090;2022-12-29T15:38:30;100799.56;;;2.00;76.68
75923;BME280;64602;47.542;19.090;2022-12-29T15:44:14;100794.94;;;1.93;77.37
75923;BME280;64602;47.542;19.090;2022-12-29T15:49:20;100800.19;;;1.87;77.50
75923;BME280;64602;47.542;19.090;2022-12-29T15:54:23;100795.88;;;1.71;77.79
75923;BME280;64602;47.542;19.090;2022-12-29T15:59:28;100785.53;;;1.68;77.79
75923;BME280;64602;47.542;19.090;2022-12-29T16:04:31;100810.16;;;1.78;77.56
75923;BME280;64602;47.542;19.090;2022-12-29T16:09:56;100791.31;;;1.57;77.81
75923;BME280;64602;47.542;19.090;2022-12-29T16:15:01;100799.34;;;1.57;77.85
75923;BME280;64602;47.542;19.090;2022-12-29T16:20:21;100794.16;;;1.40;78.46
75923;BME280;64602;47.542;19.090;2022-12-29T16:25:34;100795.19;;;1.39;78.78
75923;BME280;64602;47.542;19.090;2022-12-29T16:30:39;100790.47;;;1.26;79.10
75923;BME280;64602;47.542;19.090;2022-12-29T16:41:00;100808.25;;;1.19;79.62
75923;BME280;64602;47.542;19.090;2022-12-29T16:46:28;100815.22;;;1.20;79.67
75923;BME280;64602;47.542;19.090;2022-12-29T16:51:36;100807.94;;;1.14;79.81
75923;BME280;64602;47.542;19.090;2022-12-29T16:56:43;100804.09;;;0.94;80.24
75923;BME280;64602;47.542;19.090;2022-12-29T17:01:46;100824.34;;;0.88;80.82
75923;BME280;64602;47.542;19.090;2022-12-29T17:06:48;100827.00;;;0.88;81.16
75923;BME280;64602;47.542;19.090;2022-12-29T17:11:54;100825.75;;;0.76;81.61
75923;BME280;64602;47.542;19.090;2022-12-29T17:17:27;100828.69;;;0.58;82.25
75923;BME280;64602;47.542;19.090;2022-12-29T17:22:27;100843.87;;;0.57;82.57
75923;BME280;64602;47.542;19.090;2022-12-29T17:27:31;100823.56;;;0.48;82.88
75923;BME280;64602;47.542;19.090;2022-12-29T17:32:37;100822.22;;;0.52;82.91
75923;BME280;64602;47.542;19.090;2022-12-29T17:37:39;100817.25;;;0.49;83.18
75923;BME280;64602;47.542;19.090;2022-12-29T17:42:43;100803.81;;;0.34;83.50
75923;BME280;64602;47.542;19.090;2022-12-29T17:47:46;100819.31;;;0.39;83.67
75923;BME280;64602;47.542;19.090;2022-12-29T17:52:54;100804.50;;;0.28;83.77
75923;BME280;64602;47.542;19.090;2022-12-29T17:58:17;100814.19;;;0.29;84.07
75923;BME280;64602;47.542;19.090;2022-12-29T18:03:27;100819.16;;;0.32;84.42
75923;BME280;64602;47.542;19.090;2022-12-29T18:08:30;100799.19;;;0.20;84.52
75923;BME280;64602;47.542;19.090;2022-12-29T18:13:33;100802.69;;;0.20;84.74
75923;BME280;64602;47.542;19.090;2022-12-29T18:18:47;100817.06;;;0.11;85.31
75923;BME280;64602;47.542;19.090;2022-12-29T18:23:49;100810.41;;;0.15;85.15
75923;BME280;64602;47.542;19.090;2022-12-29T18:28:51;100792.91;;;0.13;85.25
75923;BME280;64602;47.542;19.090;2022-12-29T18:33:56;100778.59;;;0.06;85.30
75923;BME280;64602;47.542;19.090;2022-12-29T18:38:58;100778.59;;;-0.03;85.60
75923;BME280;64602;47.542;19.090;2022-12-29T18:44:00;100787.25;;;-0.01;85.84
75923;BME280;64602;47.542;19.090;2022-12-29T18:49:02;100786.59;;;0.06;85.85
75923;BME280;64602;47.542;19.090;2022-12-29T18:54:05;100788.44;;;0.05;85.86
75923;BME280;64602;47.542;19.090;2022-12-29T18:59:07;100792.59;;;-0.01;86.12
75923;BME280;64602;47.542;19.090;2022-12-29T19:04:12;100786.28;;;0.01;86.15
75923;BME280;64602;47.542;19.090;2022-12-29T19:09:15;100771.12;;;-0.07;86.19
75923;BME280;64602;47.542;19.090;2022-12-29T19:14:17;100775.59;;;0.01;86.30
75923;BME280;64602;47.542;19.090;2022-12-29T19:19:19;100773.91;;;0.08;87.21
75923;BME280;64602;47.542;19.090;2022-12-29T19:24:21;100767.34;;;0.50;86.49
75923;BME280;64602;47.542;19.090;2022-12-29T19:29:23;100761.69;;;0.45;85.60
75923;BME280;64602;47.542;19.090;2022-12-29T19:34:25;100776.88;;;0.44;85.42
75923;BME280;64602;47.542;19.090;2022-12-29T19:39:27;100761.78;;;0.28;85.44
75923;BME280;64602;47.542;19.090;2022-12-29T19:44:30;100773.94;;;0.31;85.53
75923;BME280;64602;47.542;19.090;2022-12-29T19:49:33;100762.81;;;0.19;85.56
75923;BME280;64602;47.542;19.090;2022-12-29T19:54:35;100775.00;;;0.21;85.76
75923;BME280;64602;47.542;19.090;2022-12-29T19:59:37;100764.00;;;0.16;85.96
75923;BME280;64602;47.542;19.090;2022-12-29T20:04:39;100754.88;;;0.11;86.21
75923;BME280;64602;47.542;19.090;2022-12-29T20:09:42;100751.09;;;-0.03;86.38
75923;BME280;64602;47.542;19.090;2022-12-29T20:14:44;100749.75;;;0.01;86.62
75923;BME280;64602;47.542;19.090;2022-12-29T20:19:46;100749.41;;;0.04;86.48
75923;BME280;64602;47.542;19.090;2022-12-29T20:24:49;100735.91;;;-0.03;86.44
75923;BME280;64602;47.542;19.090;2022-12-29T20:30:00;100746.59;;;-0.03;86.40
75923;BME280;64602;47.542;19.090;2022-12-29T20:35:02;100748.94;;;-0.08;86.58
75923;BME280;64602;47.542;19.090;2022-12-29T20:40:05;100737.09;;;-0.05;86.50
75923;BME280;64602;47.542;19.090;2022-12-29T20:45:09;100746.94;;;-0.06;86.76
75923;BME280;64602;47.542;19.090;2022-12-29T20:50:11;100744.94;;;-0.04;86.80
75923;BME280;64602;47.542;19.090;2022-12-29T20:55:13;100745.44;;;-0.08;86.78
75923;BME280;64602;47.542;19.090;2022-12-29T21:00:16;100735.59;;;-0.08;86.86
75923;BME280;64602;47.542;19.090;2022-12-29T21:05:24;100740.12;;;-0.08;86.83
75923;BME280;64602;47.542;19.090;2022-12-29T21:10:26;100744.94;;;-0.04;86.91
75923;BME280;64602;47.542;19.090;2022-12-29T21:15:30;100766.13;;;-0.02;86.86
75923;BME280;64602;47.542;19.090;2022-12-29T21:20:33;100749.47;;;-0.12;86.97
75923;BME280;64602;47.542;19.090;2022-12-29T21:25:35;100751.97;;;-0.11;86.97
75923;BME280;64602;47.542;19.090;2022-12-29T21:30:38;100763.91;;;0.02;86.75
75923;BME280;64602;47.542;19.090;2022-12-29T21:35:41;100749.59;;;0.03;86.63
